createdAt,value
2023-01-18T00:01:29.471Z,98164.91
2023-01-18T00:03:58.323Z,98156.94
2023-01-18T00:06:27.883Z,98154.91
2023-01-18T00:08:55.863Z,98154.06
2023-01-18T00:11:24.104Z,98155.27
2023-01-18T00:13:54.226Z,98158.48
2023-01-18T00:16:22.812Z,98158.33
2023-01-18T00:18:55.645Z,98155.11
2023-01-18T00:21:24.773Z,98149.69
2023-01-18T00:24:22.980Z,98145.10
2023-01-18T00:26:50.866Z,98145.27
2023-01-18T00:29:23.645Z,98140.16
2023-01-18T00:31:51.651Z,98138.80
2023-01-18T00:34:20.639Z,98136.28
2023-01-18T00:36:50.676Z,98131.36
2023-01-18T00:39:18.796Z,98127.45
2023-01-18T00:42:06.325Z,98125.10
2023-01-18T00:44:34.224Z,98117.63
2023-01-18T00:47:03.113Z,98113.73
2023-01-18T00:49:31.131Z,98110.52
2023-01-18T00:51:58.982Z,98111.73
2023-01-18T00:54:26.920Z,98108.70
2023-01-18T00:56:56.750Z,98106.85
2023-01-18T00:59:26.596Z,98104.68
2023-01-18T01:01:58.569Z,98096.85
2023-01-18T01:04:47.388Z,98091.78
2023-01-18T01:07:40.705Z,98086.84
2023-01-18T01:11:01.313Z,98083.79
2023-01-18T01:13:49.075Z,98078.72
2023-01-18T01:16:39.395Z,98076.17
2023-01-18T01:19:30.949Z,98080.45
2023-01-18T01:22:17.644Z,98075.69
2023-01-18T01:25:05.253Z,98076.19
2023-01-18T01:27:33.203Z,98070.92
2023-01-18T01:30:06.428Z,98071.77
2023-01-18T01:32:36.303Z,98068.04
2023-01-18T01:35:07.896Z,98065.15
2023-01-18T01:37:36.075Z,98068.90
2023-01-18T01:40:05.865Z,98068.40
2023-01-18T01:42:33.769Z,98072.83
2023-01-18T01:45:02.636Z,98072.33
2023-01-18T01:47:44.562Z,98076.25
2023-01-18T01:50:23.480Z,98073.69
2023-01-18T01:52:58.677Z,98074.89
2023-01-18T01:55:35.622Z,98076.77
2023-01-18T01:58:24.169Z,98081.70
2023-01-18T02:00:54.340Z,98089.73
2023-01-18T02:03:25.308Z,98087.52
2023-01-18T02:06:05.713Z,98087.52
2023-01-18T02:08:38.643Z,98082.77
2023-01-18T02:11:08.450Z,98083.13
2023-01-18T02:13:36.404Z,98082.46
2023-01-18T02:16:23.830Z,98075.67
2023-01-18T02:19:04.668Z,98069.55
2023-01-18T02:21:48.643Z,98070.91
2023-01-18T02:24:42.987Z,98071.25
2023-01-18T02:27:20.949Z,98066.64
2023-01-18T02:30:11.352Z,98066.48
2023-01-18T02:32:44.528Z,98066.83
2023-01-18T02:35:20.364Z,98072.96
2023-01-18T02:38:09.992Z,98068.02
2023-01-18T02:40:57.080Z,98067.86
2023-01-18T02:43:47.696Z,98062.92
2023-01-18T02:46:38.896Z,98061.06
2023-01-18T02:49:23.922Z,98057.32
2023-01-18T02:52:32.388Z,98054.41
2023-01-18T02:55:00.326Z,98052.02
2023-01-18T02:57:29.153Z,98051.52
2023-01-18T03:00:00.257Z,98047.76
2023-01-18T03:02:28.468Z,98044.54
2023-01-18T03:04:56.646Z,98040.63
2023-01-18T03:07:29.227Z,98043.16
2023-01-18T03:10:00.112Z,98037.38
2023-01-18T03:12:47.526Z,98039.59
2023-01-18T03:15:21.238Z,98036.17
2023-01-18T03:17:57.359Z,98037.89
2023-01-18T03:20:32.697Z,98033.45
2023-01-18T03:23:31.966Z,98022.88
2023-01-18T03:26:03.676Z,98014.70
2023-01-18T03:29:13.811Z,98014.52
2023-01-18T03:32:31.633Z,98009.23
2023-01-18T03:35:09.532Z,98002.23
2023-01-18T03:37:42.116Z,97993.70
2023-01-18T03:40:23.678Z,97983.98
2023-01-18T03:42:51.522Z,97974.77
2023-01-18T03:45:38.159Z,97969.13
2023-01-18T03:48:08.304Z,97960.77
2023-01-18T03:50:42.030Z,97957.37
2023-01-18T03:53:15.091Z,97944.91
2023-01-18T03:55:56.640Z,97939.10
2023-01-18T03:58:36.206Z,97935.67
2023-01-18T04:05:12.346Z,97913.85
2023-01-18T04:07:41.380Z,97908.05
2023-01-18T04:10:10.747Z,97902.25
2023-01-18T04:12:38.631Z,97901.55
2023-01-18T04:15:07.037Z,97906.33
2023-01-18T04:17:35.067Z,97908.55
2023-01-18T04:20:08.770Z,97909.25
2023-01-18T04:22:36.670Z,97911.64
2023-01-18T04:25:04.729Z,97910.11
2023-01-18T04:27:32.537Z,97910.60
2023-01-18T04:30:00.524Z,97914.86
2023-01-18T04:34:37.390Z,97918.08
2023-01-18T04:37:05.358Z,97926.15
2023-01-18T04:39:33.246Z,97923.91
2023-01-18T04:42:01.215Z,97924.08
2023-01-18T04:44:29.083Z,97921.70
2023-01-18T04:46:56.973Z,97921.35
2023-01-18T04:49:25.516Z,97921.84
2023-01-18T04:51:53.625Z,97919.80
2023-01-18T04:54:21.573Z,97922.68
2023-01-18T04:56:49.599Z,97926.45
2023-01-18T04:59:17.676Z,97926.95
2023-01-18T05:01:45.666Z,97923.88
2023-01-18T05:04:13.686Z,97919.08
2023-01-18T05:06:41.899Z,97921.29
2023-01-18T05:09:12.457Z,97918.39
2023-01-18T05:11:41.676Z,97917.69
2023-01-18T05:14:10.246Z,97912.05
2023-01-18T05:16:38.204Z,97911.02
2023-01-18T05:19:06.129Z,97902.48
2023-01-18T05:21:34.091Z,97900.08
2023-01-18T05:24:01.996Z,97903.81
2023-01-18T05:26:30.103Z,97901.58
2023-01-18T05:28:58.498Z,97905.16
2023-01-18T05:31:26.540Z,97898.80
2023-01-18T05:33:56.670Z,97892.66
2023-01-18T05:36:24.696Z,97886.85
2023-01-18T05:38:52.575Z,97879.34
2023-01-18T05:41:21.306Z,97868.91
2023-01-18T05:43:49.442Z,97861.74
2023-01-18T05:46:17.414Z,97852.00
2023-01-18T05:48:45.423Z,97849.25
2023-01-18T05:51:14.267Z,97840.54
2023-01-18T05:53:42.350Z,97832.85
2023-01-18T05:56:10.580Z,97823.77
2023-01-18T05:58:39.012Z,97812.14
2023-01-18T06:01:09.868Z,97810.78
2023-01-18T06:03:38.916Z,97805.60
2023-01-18T06:06:07.288Z,97811.47
2023-01-18T06:08:35.297Z,97814.16
2023-01-18T06:11:04.528Z,97810.61
2023-01-18T06:13:33.013Z,97807.02
2023-01-18T06:16:01.790Z,97797.64
2023-01-18T06:18:33.017Z,97784.78
2023-01-18T06:21:02.429Z,97771.95
2023-01-18T06:23:31.211Z,97755.88
2023-01-18T06:25:59.432Z,97747.15
2023-01-18T06:28:30.286Z,97739.13
2023-01-18T06:30:59.152Z,97735.57
2023-01-18T06:33:27.402Z,97736.15
2023-01-18T06:35:55.527Z,97749.12
2023-01-18T06:38:23.506Z,97785.02
2023-01-18T06:40:51.389Z,97815.60
2023-01-18T06:43:19.702Z,97816.41
2023-01-18T06:45:57.831Z,97805.14
2023-01-18T06:48:26.673Z,97800.52
2023-01-18T06:50:58.334Z,97798.78
2023-01-18T06:53:26.770Z,97788.73
2023-01-18T06:56:00.161Z,97768.55
2023-01-18T06:58:29.024Z,97756.69
2023-01-18T07:00:58.684Z,97745.23
2023-01-18T07:03:28.589Z,97750.37
2023-01-18T07:06:21.257Z,97758.59
2023-01-18T07:08:49.735Z,97769.70
2023-01-18T07:11:18.842Z,97775.52
2023-01-18T07:13:46.744Z,97781.30
2023-01-18T07:16:18.101Z,97792.58
2023-01-18T07:18:47.723Z,97801.98
2023-01-18T07:21:17.851Z,97806.95
2023-01-18T07:23:46.385Z,97802.10
2023-01-18T07:26:16.708Z,97795.20
2023-01-18T07:28:52.422Z,97789.96
2023-01-18T07:31:30.186Z,97796.84
2023-01-18T07:33:58.620Z,97800.05
2023-01-18T07:36:26.508Z,97794.25
2023-01-18T07:38:54.398Z,97786.75
2023-01-18T07:41:23.268Z,97779.19
2023-01-18T07:43:54.006Z,97780.79
2023-01-18T07:46:22.220Z,97778.41
2023-01-18T07:48:50.221Z,97779.92
2023-01-18T07:51:19.425Z,97777.66
2023-01-18T07:53:47.496Z,97775.76
2023-01-18T07:56:17.600Z,97779.02
2023-01-18T07:58:45.876Z,97772.92
2023-01-18T08:01:17.009Z,97770.83
2023-01-18T08:03:48.026Z,97763.31
2023-01-18T08:06:20.597Z,97767.27
2023-01-18T08:08:48.684Z,97769.20
2023-01-18T08:11:16.558Z,97761.33
2023-01-18T08:13:44.437Z,97750.91
2023-01-18T08:16:12.899Z,97745.11
2023-01-18T08:18:41.770Z,97742.39
2023-01-18T08:21:11.677Z,97741.66
2023-01-18T08:23:39.937Z,97735.33
2023-01-18T08:26:09.020Z,97722.22
2023-01-18T08:28:37.206Z,97716.09
2023-01-18T08:31:17.761Z,97715.10
2023-01-18T08:33:47.702Z,97710.27
2023-01-18T08:36:19.026Z,97729.06
2023-01-18T08:38:51.704Z,97740.57
2023-01-18T08:41:20.905Z,97742.28
2023-01-18T08:43:51.144Z,97739.30
2023-01-18T08:46:19.548Z,97747.87
2023-01-18T08:48:52.356Z,97756.39
2023-01-18T08:51:23.108Z,97760.17
2023-01-18T08:53:56.565Z,97764.81
2023-01-18T08:56:25.086Z,97763.90
2023-01-18T08:58:53.063Z,97754.67
2023-01-18T09:01:23.735Z,97749.15
2023-01-18T09:03:56.315Z,97747.25
2023-01-18T09:06:25.183Z,97740.05
2023-01-18T09:08:53.408Z,97740.77
2023-01-18T09:11:21.254Z,97741.94
2023-01-18T09:14:00.682Z,97728.78
2023-01-18T09:16:31.028Z,97726.25
2023-01-18T09:18:59.873Z,97728.79
2023-01-18T09:21:28.854Z,97724.98
2023-01-18T09:23:57.930Z,97722.77
2023-01-18T09:26:27.917Z,97715.45
2023-01-18T09:28:56.075Z,97701.95
2023-01-18T09:31:26.981Z,97693.89
2023-01-18T09:34:06.210Z,97684.11
2023-01-18T09:36:45.723Z,97674.73
2023-01-18T09:39:13.728Z,97675.77
2023-01-18T09:41:44.771Z,97680.54
2023-01-18T09:44:33.916Z,97683.84
2023-01-18T09:47:04.848Z,97682.62
2023-01-18T09:49:56.704Z,97685.89
2023-01-18T09:53:01.752Z,97686.75
2023-01-18T09:55:48.396Z,97686.02
2023-01-18T09:58:44.209Z,97677.89
2023-01-18T10:01:17.171Z,97675.95
2023-01-18T10:04:04.174Z,97674.20
2023-01-18T10:06:44.412Z,97665.52
2023-01-18T10:09:18.117Z,97668.63
2023-01-18T10:12:05.199Z,97668.78
2023-01-18T10:14:42.257Z,97678.35
2023-01-18T10:17:23.105Z,97675.78
2023-01-18T10:19:51.730Z,97673.25
2023-01-18T10:22:28.139Z,97676.64
2023-01-18T10:25:05.504Z,97672.54
2023-01-18T10:27:56.260Z,97670.66
2023-01-18T10:30:55.886Z,97661.64
2023-01-18T10:33:27.728Z,97652.98
2023-01-18T10:36:00.756Z,97654.23
2023-01-18T10:38:30.309Z,97651.21
2023-01-18T10:41:02.680Z,97650.48
2023-01-18T10:43:31.967Z,97660.13
2023-01-18T10:46:19.541Z,97658.29
2023-01-18T10:48:52.878Z,97662.52
2023-01-18T10:51:32.726Z,97653.51
2023-01-18T10:54:22.212Z,97645.81
2023-01-18T10:57:01.869Z,97648.89
2023-01-18T10:59:39.841Z,97644.14
2023-01-18T11:04:35.601Z,97646.17
2023-01-18T11:07:05.214Z,97644.50
2023-01-18T11:09:48.642Z,97644.50
2023-01-18T11:12:34.601Z,97648.25
2023-01-18T11:15:14.537Z,97647.20
2023-01-18T11:18:00.408Z,97645.36
2023-01-18T11:20:48.738Z,97643.52
2023-01-18T11:23:21.109Z,97644.71
2023-01-18T11:25:51.624Z,97640.46
2023-01-18T11:28:23.391Z,97638.42
2023-01-18T11:31:21.117Z,97639.41
2023-01-18T11:33:56.823Z,97639.41
2023-01-18T11:36:44.273Z,97640.94
2023-01-18T11:39:33.112Z,97634.80
2023-01-18T11:42:27.495Z,97640.58
2023-01-18T11:45:04.773Z,97640.73
2023-01-18T11:47:49.576Z,97636.09
2023-01-18T11:50:29.802Z,97629.98
2023-01-18T11:53:07.357Z,97624.52
2023-01-18T11:55:41.748Z,97627.42
2023-01-18T11:58:25.584Z,97638.08
2023-01-18T12:01:22.074Z,97635.31
2023-01-18T12:04:06.418Z,97630.67
2023-01-18T12:07:03.893Z,97627.60
2023-01-18T12:09:50.294Z,97644.34
2023-01-18T12:12:33.267Z,97637.33
2023-01-18T12:15:19.095Z,97639.61
2023-01-18T12:18:12.460Z,97638.79
2023-01-18T12:20:44.146Z,97642.39
2023-01-18T12:23:33.752Z,97646.16
2023-01-18T12:26:26.158Z,97650.98
2023-01-18T12:29:13.202Z,97649.61
2023-01-18T12:32:03.352Z,97646.88
2023-01-18T12:34:40.533Z,97658.84
2023-01-18T12:37:18.156Z,97667.34
2023-01-18T12:40:38.513Z,97666.96
2023-01-18T12:43:25.031Z,97667.25
2023-01-18T12:46:04.491Z,97674.17
2023-01-18T12:48:40.837Z,97679.94
2023-01-18T12:51:18.505Z,97674.98
2023-01-18T12:53:59.950Z,97677.86
2023-01-18T12:56:45.448Z,97679.01
2023-01-18T12:59:24.253Z,97680.00
2023-01-18T13:01:57.528Z,97683.60
2023-01-18T13:04:32.577Z,97688.92
2023-01-18T13:07:07.321Z,97690.14
2023-01-18T13:09:40.515Z,97688.29
2023-01-18T13:12:09.527Z,97685.08
2023-01-18T13:15:09.307Z,97693.96
2023-01-18T13:18:08.260Z,97697.59
2023-01-18T13:20:59.123Z,97696.59
2023-01-18T13:23:32.287Z,97702.25
2023-01-18T13:26:21.743Z,97711.83
2023-01-18T13:29:06.496Z,97711.89
2023-01-18T13:31:34.611Z,97715.67
2023-01-18T13:34:03.626Z,97722.87
2023-01-18T13:36:45.833Z,97726.64
2023-01-18T13:39:16.756Z,97730.96
2023-01-18T13:42:03.495Z,97737.64
2023-01-18T13:44:47.723Z,97741.77
2023-01-18T13:47:45.932Z,97741.11
2023-01-18T13:50:28.923Z,97749.16
2023-01-18T13:53:15.301Z,97748.49
2023-01-18T13:55:55.008Z,97752.98
2023-01-18T13:58:31.097Z,97758.48
2023-01-18T14:01:03.434Z,97762.10
2023-01-18T14:03:45.053Z,97763.50
2023-01-18T14:06:19.665Z,97770.52
2023-01-18T14:08:55.462Z,97777.01
2023-01-18T14:11:27.875Z,97779.75
2023-01-18T14:13:55.938Z,97781.14
2023-01-18T14:16:27.769Z,97780.64
2023-01-18T14:19:11.949Z,97782.90
2023-01-18T14:21:58.494Z,97784.79
2023-01-18T14:24:29.063Z,97789.75
2023-01-18T14:26:59.234Z,97792.68
2023-01-18T14:29:42.758Z,97794.57
2023-01-18T14:32:22.863Z,97800.05
2023-01-18T14:34:59.319Z,97806.86
2023-01-18T14:37:30.068Z,97804.65
2023-01-18T14:40:14.195Z,97815.56
2023-01-18T14:42:47.570Z,97827.17
2023-01-18T14:45:29.417Z,97835.35
2023-01-18T14:48:02.190Z,97838.09
2023-01-18T14:50:36.279Z,97846.61
2023-01-18T14:53:06.640Z,97849.70
2023-01-18T14:55:35.316Z,97840.33
2023-01-18T14:58:15.700Z,97845.09
2023-01-18T15:00:43.720Z,97846.80
2023-01-18T15:03:24.179Z,97847.31
2023-01-18T15:06:17.606Z,97862.14
2023-01-18T15:08:47.231Z,97874.41
2023-01-18T15:11:15.300Z,97884.29
2023-01-18T15:13:50.393Z,97884.45
2023-01-18T15:16:21.797Z,97889.40
2023-01-18T15:18:52.106Z,97890.42
2023-01-18T15:21:24.727Z,97895.70
2023-01-18T15:24:06.517Z,97901.84
2023-01-18T15:27:01.245Z,97912.05
2023-01-18T15:29:36.111Z,97920.92
2023-01-18T15:32:14.118Z,97928.95
2023-01-18T15:34:48.462Z,97925.36
2023-01-18T15:37:22.115Z,97934.57
2023-01-18T15:39:56.827Z,97947.52
2023-01-18T15:42:46.286Z,97956.23
2023-01-18T15:45:20.685Z,97962.52
2023-01-18T15:47:53.862Z,97968.16
2023-01-18T15:50:24.784Z,97975.98
2023-01-18T15:53:09.871Z,97981.45
2023-01-18T15:55:45.670Z,97986.56
2023-01-18T15:58:30.242Z,97994.23
2023-01-18T16:01:04.921Z,98007.54
2023-01-18T16:03:53.508Z,98014.52
2023-01-18T16:06:21.483Z,98024.41
2023-01-18T16:09:17.067Z,98038.39
2023-01-18T16:11:57.077Z,98045.56
2023-01-18T16:14:32.469Z,98047.09
2023-01-18T16:17:27.627Z,98055.79
2023-01-18T16:19:57.693Z,98058.51
2023-01-18T16:22:28.831Z,98068.58
2023-01-18T16:25:04.453Z,98073.17
2023-01-18T16:27:54.016Z,98081.70
2023-01-18T16:30:24.108Z,98088.35
2023-01-18T16:32:52.080Z,98092.44
2023-01-18T16:35:22.006Z,98099.08
2023-01-18T16:37:52.104Z,98106.76
2023-01-18T16:40:23.237Z,98107.44
2023-01-18T16:43:01.303Z,98112.89
2023-01-18T16:45:33.600Z,98116.98
2023-01-18T16:48:02.347Z,98118.01
2023-01-18T16:50:30.643Z,98123.28
2023-01-18T16:52:58.652Z,98124.98
2023-01-18T16:55:27.245Z,98135.39
2023-01-18T16:57:55.279Z,98138.63
2023-01-18T17:00:25.956Z,98145.45
2023-01-18T17:02:53.826Z,98151.09
2023-01-18T17:05:22.261Z,98153.63
2023-01-18T17:07:52.667Z,98162.50
2023-01-18T17:10:20.815Z,98167.61
2023-01-18T17:12:49.088Z,98173.40
2023-01-18T17:15:20.029Z,98182.95
2023-01-18T17:17:48.343Z,98184.66
2023-01-18T17:20:19.615Z,98184.31
2023-01-18T17:22:47.617Z,98194.90
2023-01-18T17:25:15.743Z,98201.36
2023-01-18T17:27:44.505Z,98206.83
2023-01-18T17:30:15.541Z,98214.16
2023-01-18T17:32:43.514Z,98226.92
2023-01-18T17:35:11.439Z,98236.83
2023-01-18T17:40:17.768Z,98249.29
2023-01-18T17:42:51.851Z,98256.45
2023-01-18T17:45:19.713Z,98262.58
2023-01-18T17:47:47.683Z,98265.83
2023-01-18T17:50:22.902Z,98266.17
2023-01-18T17:52:52.085Z,98268.90
2023-01-18T17:55:24.485Z,98275.55
2023-01-18T17:57:56.272Z,98275.89
2023-01-18T18:00:24.325Z,98277.60
2023-01-18T18:02:53.635Z,98277.77
2023-01-18T18:05:21.567Z,98282.54
2023-01-18T18:07:49.712Z,98282.70
2023-01-18T18:10:17.982Z,98287.64
2023-01-18T18:12:46.160Z,98288.33
2023-01-18T18:15:14.024Z,98288.34
2023-01-18T18:17:41.924Z,98293.44
2023-01-18T18:20:10.847Z,98296.84
2023-01-18T18:22:38.806Z,98306.05
2023-01-18T18:25:07.511Z,98313.73
2023-01-18T18:27:45.416Z,98327.71
2023-01-18T18:30:15.334Z,98344.60
2023-01-18T18:32:43.267Z,98350.05
2023-01-18T18:35:24.528Z,98362.33
2023-01-18T18:37:54.712Z,98368.98
2023-01-18T18:40:24.054Z,98374.78
2023-01-18T18:43:07.890Z,98379.73
2023-01-18T18:45:35.991Z,98389.79
2023-01-18T18:48:04.578Z,98401.02
2023-01-18T18:50:32.524Z,98406.32
2023-01-18T18:53:00.896Z,98416.06
2023-01-18T18:55:29.067Z,98424.42
2023-01-18T18:57:57.066Z,98431.59
2023-01-18T19:04:53.660Z,98453.89
2023-01-18T19:07:20.309Z,98466.52
2023-01-18T19:09:46.956Z,98470.11
2023-01-18T19:12:13.441Z,98479.83
2023-01-18T19:14:40.069Z,98483.40
2023-01-18T19:17:07.304Z,98492.27
2023-01-18T19:19:33.932Z,98501.11
2023-01-18T19:22:00.577Z,98505.07
2023-01-18T19:24:31.202Z,98515.30
2023-01-18T19:26:57.944Z,98513.27
2023-01-18T19:29:24.394Z,98518.73
2023-01-18T19:31:52.052Z,98521.80
2023-01-18T19:34:20.542Z,98525.21
2023-01-18T19:36:47.882Z,98529.84
2023-01-18T19:39:22.379Z,98534.42
2023-01-18T19:41:49.384Z,98546.35
2023-01-18T19:44:16.461Z,98543.27
2023-01-18T19:46:43.285Z,98535.10
2023-01-18T19:49:09.830Z,98533.95
2023-01-18T19:51:40.403Z,98536.16
2023-01-18T19:54:09.361Z,98543.64
2023-01-18T19:56:35.983Z,98552.02
2023-01-18T19:59:03.088Z,98562.94
2023-01-18T20:01:36.374Z,98568.58
2023-01-18T20:04:05.239Z,98564.30
2023-01-18T20:06:33.434Z,98573.69
2023-01-18T20:09:00.100Z,98582.89
2023-01-18T20:11:26.783Z,98593.99
2023-01-18T20:13:53.846Z,98595.20
2023-01-18T20:16:21.144Z,98607.30
2023-01-18T20:18:48.851Z,98617.71
2023-01-18T20:21:17.724Z,98628.66
2023-01-18T20:23:44.891Z,98631.02
2023-01-18T20:26:13.011Z,98629.17
2023-01-18T20:28:40.592Z,98625.74
2023-01-18T20:31:09.466Z,98621.80
2023-01-18T20:33:37.434Z,98627.28
2023-01-18T20:36:05.864Z,98640.27
2023-01-18T20:38:33.146Z,98651.02
2023-01-18T20:41:00.495Z,98655.11
2023-01-18T20:43:27.062Z,98658.01
2023-01-18T20:46:06.714Z,98667.23
2023-01-18T20:48:37.457Z,98685.15
2023-01-18T20:51:06.741Z,98691.48
2023-01-18T20:53:33.948Z,98700.35
2023-01-18T20:56:01.894Z,98712.45
2023-01-18T20:58:29.064Z,98724.91
2023-01-18T21:00:55.774Z,98731.77
2023-01-18T21:03:22.862Z,98736.20
2023-01-18T21:05:49.440Z,98742.33
2023-01-18T21:08:16.755Z,98743.38
2023-01-18T21:10:43.343Z,98747.14
2023-01-18T21:13:10.819Z,98743.89
2023-01-18T21:15:38.482Z,98748.14
2023-01-18T21:18:06.553Z,98756.36
2023-01-18T21:20:33.550Z,98759.27
2023-01-18T21:23:00.950Z,98757.22
2023-01-18T21:25:28.546Z,98754.14
2023-01-18T21:27:57.485Z,98748.69
2023-01-18T21:30:24.503Z,98750.77
2023-01-18T21:32:51.204Z,98757.77
2023-01-18T21:35:18.361Z,98771.27
2023-01-18T21:37:45.116Z,98779.61
2023-01-18T21:40:11.866Z,98788.84
2023-01-18T21:42:57.187Z,98795.52
2023-01-18T21:45:42.048Z,98795.16
2023-01-18T21:48:08.709Z,98806.09
2023-01-18T21:50:57.138Z,98812.75
2023-01-18T21:53:42.300Z,98828.77
2023-01-18T21:56:09.282Z,98838.16
2023-01-18T21:58:54.062Z,98845.84
2023-01-18T22:01:33.817Z,98853.51
2023-01-18T22:04:21.224Z,98854.55
2023-01-18T22:06:48.120Z,98862.58
2023-01-18T22:09:15.693Z,98859.83
2023-01-18T22:11:43.788Z,98853.20
2023-01-18T22:14:10.901Z,98853.54
2023-01-18T22:16:37.839Z,98863.92
2023-01-18T22:19:04.440Z,98867.17
2023-01-18T22:21:31.873Z,98861.56
2023-01-18T22:23:58.754Z,98857.30
2023-01-18T22:26:27.637Z,98860.02
2023-01-18T22:28:54.501Z,98868.73
2023-01-18T22:31:21.098Z,98881.19
2023-01-18T22:33:48.314Z,98890.42
2023-01-18T22:36:15.624Z,98889.56
2023-01-18T22:38:43.292Z,98894.50
2023-01-18T22:41:12.411Z,98889.90
2023-01-18T22:43:39.681Z,98892.30
2023-01-18T22:46:08.262Z,98886.33
2023-01-18T22:48:36.799Z,98883.41
2023-01-18T22:51:04.762Z,98894.67
2023-01-18T22:53:33.018Z,98896.89
2023-01-18T22:56:05.603Z,98899.78
2023-01-18T22:58:32.421Z,98902.85
2023-01-18T23:00:59.151Z,98901.99
2023-01-18T23:03:26.266Z,98899.73
2023-01-18T23:05:58.038Z,98911.66
2023-01-18T23:08:43.175Z,98912.01
2023-01-18T23:11:19.227Z,98920.00
2023-01-18T23:14:08.517Z,98921.88
2023-01-18T23:16:54.744Z,98927.85
2023-01-18T23:19:23.407Z,98936.89
2023-01-18T23:21:50.567Z,98947.98
2023-01-18T23:24:17.584Z,98957.03
2023-01-18T23:26:44.280Z,98959.75
2023-01-18T23:29:10.917Z,98956.86
2023-01-18T23:31:37.626Z,98959.08
2023-01-18T23:34:04.168Z,98967.77
2023-01-18T23:36:30.774Z,98971.36
2023-01-18T23:39:16.144Z,98979.21
2023-01-18T23:42:01.244Z,98983.31
2023-01-18T23:44:46.282Z,98985.54
2023-01-18T23:47:31.391Z,98984.15
2023-01-18T23:50:16.436Z,98996.28
2023-01-18T23:53:01.800Z,99006.71
2023-01-18T23:55:28.281Z,99014.88
2023-01-18T23:57:54.798Z,99024.27
